createdAt,value
2018-07-21T00:00:09.738Z,19.72
2018-07-21T00:02:40.133Z,19.49
2018-07-21T00:05:10.770Z,19.35
2018-07-21T00:07:41.135Z,19.33
2018-07-21T00:10:11.630Z,19.30
2018-07-21T00:12:42.859Z,19.26
2018-07-21T00:15:13.143Z,19.22
2018-07-21T00:17:43.489Z,19.15
2018-07-21T00:20:13.866Z,19.37
2018-07-21T00:22:44.152Z,19.34
2018-07-21T00:25:15.152Z,19.34
2018-07-21T00:27:45.606Z,19.29
2018-07-21T00:30:16.234Z,19.25
2018-07-21T00:32:46.819Z,19.18
2018-07-21T00:35:17.383Z,19.17
2018-07-21T00:37:47.666Z,18.98
2018-07-21T00:40:18.121Z,19.06
2018-07-21T00:42:48.426Z,18.96
2018-07-21T00:45:18.967Z,19.07
2018-07-21T00:47:49.890Z,19.04
2018-07-21T00:50:20.331Z,19.02
2018-07-21T00:52:50.658Z,18.95
2018-07-21T00:55:20.992Z,18.93
2018-07-21T00:57:51.595Z,19.01
2018-07-21T01:00:21.957Z,19.07
2018-07-21T01:02:52.503Z,18.98
2018-07-21T01:05:22.750Z,18.95
2018-07-21T01:07:53.262Z,18.90
2018-07-21T01:10:23.519Z,18.87
2018-07-21T01:12:54.004Z,18.85
2018-07-21T01:15:24.318Z,18.82
2018-07-21T01:17:54.639Z,18.77
2018-07-21T01:20:25.230Z,18.71
2018-07-21T01:22:55.579Z,18.77
2018-07-21T01:25:25.830Z,18.78
2018-07-21T01:27:56.353Z,18.81
2018-07-21T01:30:26.937Z,18.80
2018-07-21T01:32:57.279Z,18.77
2018-07-21T01:35:27.703Z,18.62
2018-07-21T01:37:58.400Z,18.62
2018-07-21T01:40:28.811Z,18.62
2018-07-21T01:42:59.355Z,18.62
2018-07-21T01:45:29.627Z,18.54
2018-07-21T01:47:59.935Z,18.37
2018-07-21T01:50:30.360Z,18.38
2018-07-21T01:53:00.687Z,18.29
2018-07-21T01:55:31.254Z,18.33
2018-07-21T01:58:01.583Z,18.20
2018-07-21T02:00:31.922Z,18.23
2018-07-21T02:03:02.110Z,18.23
2018-07-21T02:05:33.587Z,18.23
2018-07-21T02:08:03.834Z,18.25
2018-07-21T02:10:35.500Z,18.24
2018-07-21T02:13:05.874Z,18.21
2018-07-21T02:15:36.087Z,18.19
2018-07-21T02:18:06.624Z,18.15
2018-07-21T02:20:36.860Z,18.05
2018-07-21T02:23:07.093Z,18.11
2018-07-21T02:25:37.380Z,18.06
2018-07-21T02:28:07.890Z,18.06
2018-07-21T02:30:38.147Z,18.00
2018-07-21T02:33:08.307Z,17.96
2018-07-21T02:35:39.162Z,17.92
2018-07-21T02:38:10.397Z,17.90
2018-07-21T02:40:40.783Z,17.84
2018-07-21T02:43:11.505Z,17.74
2018-07-21T02:45:41.792Z,17.71
2018-07-21T02:48:12.135Z,17.70
2018-07-21T02:50:42.494Z,17.66
2018-07-21T02:53:12.744Z,17.61
2018-07-21T02:55:42.958Z,17.52
2018-07-21T02:58:13.283Z,17.39
2018-07-21T03:00:43.391Z,17.39
2018-07-21T03:03:13.813Z,17.37
2018-07-21T03:05:43.908Z,17.30
2018-07-21T03:08:14.660Z,17.21
2018-07-21T03:10:44.989Z,17.18
2018-07-21T03:13:15.373Z,17.14
2018-07-21T03:15:45.863Z,17.04
2018-07-21T03:18:16.264Z,17.00
2018-07-21T03:20:46.503Z,16.92
2018-07-21T03:23:16.953Z,16.84
2018-07-21T03:25:47.120Z,16.92
2018-07-21T03:28:17.416Z,17.02
2018-07-21T03:30:47.775Z,17.15
2018-07-21T03:33:18.125Z,17.20
2018-07-21T03:35:48.499Z,17.30
2018-07-21T03:38:18.767Z,17.54
2018-07-21T03:40:49.149Z,18.04
2018-07-21T03:43:19.727Z,18.45
2018-07-21T03:45:50.461Z,18.83
2018-07-21T03:48:20.755Z,19.15
2018-07-21T03:50:50.859Z,19.46
2018-07-21T03:53:21.195Z,19.68
2018-07-21T03:55:51.411Z,20.06
2018-07-21T03:58:21.751Z,20.49
2018-07-21T04:00:52.532Z,20.80
2018-07-21T04:03:22.782Z,21.14
2018-07-21T04:05:53.287Z,21.57
2018-07-21T04:08:23.617Z,21.93
2018-07-21T04:10:54.393Z,22.16
2018-07-21T04:13:24.591Z,22.67
2018-07-21T04:15:55.035Z,22.74
2018-07-21T04:18:25.214Z,22.99
2018-07-21T04:20:55.575Z,23.39
2018-07-21T04:23:25.814Z,23.27
2018-07-21T04:25:56.053Z,23.21
2018-07-21T04:28:26.575Z,23.37
2018-07-21T04:30:57.055Z,23.77
2018-07-21T04:33:27.498Z,24.16
2018-07-21T04:35:57.825Z,24.33
2018-07-21T04:38:28.361Z,24.52
2018-07-21T04:40:58.818Z,24.91
2018-07-21T04:43:29.374Z,24.93
2018-07-21T04:45:59.883Z,24.99
2018-07-21T04:48:30.422Z,25.50
2018-07-21T04:51:00.767Z,26.15
2018-07-21T04:53:31.402Z,26.44
2018-07-21T04:56:01.890Z,26.23
2018-07-21T04:58:32.321Z,26.55
2018-07-21T05:01:02.728Z,26.78
2018-07-21T05:03:33.110Z,26.53
2018-07-21T05:06:03.310Z,27.05
2018-07-21T05:08:34.619Z,27.12
2018-07-21T05:11:05.716Z,27.60
2018-07-21T05:13:36.100Z,27.55
2018-07-21T05:16:06.482Z,27.60
2018-07-21T05:18:36.819Z,27.72
2018-07-21T05:21:07.141Z,27.53
2018-07-21T05:23:37.664Z,28.30
2018-07-21T05:26:07.899Z,28.54
2018-07-21T05:28:38.229Z,28.33
2018-07-21T05:31:08.692Z,28.25
2018-07-21T05:33:39.069Z,28.18
2018-07-21T05:36:09.453Z,28.36
2018-07-21T05:38:39.735Z,28.28
2018-07-21T05:41:10.326Z,28.41
2018-07-21T05:43:40.749Z,28.52
2018-07-21T05:46:10.906Z,28.88
2018-07-21T05:48:41.513Z,28.67
2018-07-21T05:51:12.009Z,29.10
2018-07-21T05:53:42.438Z,29.21
2018-07-21T05:56:12.871Z,29.64
2018-07-21T05:58:43.207Z,29.61
2018-07-21T06:01:14.485Z,29.63
2018-07-21T06:03:44.947Z,30.24
2018-07-21T06:06:15.238Z,30.14
2018-07-21T06:08:45.829Z,30.38
2018-07-21T06:11:16.223Z,30.28
2018-07-21T06:13:46.744Z,29.94
2018-07-21T06:16:17.329Z,30.45
2018-07-21T06:18:48.639Z,31.18
2018-07-21T06:21:18.972Z,30.62
2018-07-21T06:23:49.476Z,30.08
2018-07-21T06:26:19.857Z,29.91
2018-07-21T06:28:50.564Z,30.52
2018-07-21T06:31:20.979Z,31.64
2018-07-21T06:33:51.539Z,31.80
2018-07-21T06:36:22.107Z,31.74
2018-07-21T06:38:52.625Z,32.73
2018-07-21T06:41:22.980Z,31.95
2018-07-21T06:43:53.526Z,32.01
2018-07-21T06:46:23.916Z,31.99
2018-07-21T06:48:55.763Z,32.27
2018-07-21T06:51:26.178Z,31.81
2018-07-21T06:53:56.586Z,32.34
2018-07-21T06:56:27.715Z,31.94
2018-07-21T06:58:58.280Z,33.07
2018-07-21T07:01:28.978Z,33.01
2018-07-21T07:03:59.482Z,32.94
2018-07-21T07:06:30.024Z,32.37
2018-07-21T07:09:00.236Z,33.32
2018-07-21T07:11:30.736Z,33.61
2018-07-21T07:14:01.318Z,33.33
2018-07-21T07:16:31.810Z,33.62
2018-07-21T07:19:02.228Z,33.62
2018-07-21T07:21:32.807Z,33.85
2018-07-21T07:24:03.125Z,34.24
2018-07-21T07:26:33.745Z,34.18
2018-07-21T07:29:04.006Z,33.83
2018-07-21T07:31:34.411Z,34.78
2018-07-21T07:34:04.815Z,33.89
2018-07-21T07:36:35.251Z,33.96
2018-07-21T07:39:07.138Z,34.44
2018-07-21T07:41:38.024Z,34.47
2018-07-21T07:44:08.514Z,35.38
2018-07-21T07:46:39.777Z,34.50
2018-07-21T07:49:10.155Z,34.70
2018-07-21T07:51:40.411Z,34.77
2018-07-21T07:54:10.802Z,34.62
2018-07-21T07:56:41.252Z,34.43
2018-07-21T07:59:11.665Z,36.05
2018-07-21T08:01:41.992Z,35.34
2018-07-21T08:04:12.255Z,35.23
2018-07-21T08:06:42.717Z,34.64
2018-07-21T08:09:13.531Z,35.91
2018-07-21T08:11:44.373Z,35.25
2018-07-21T08:14:14.742Z,34.62
2018-07-21T08:16:46.028Z,34.48
2018-07-21T08:19:16.403Z,35.18
2018-07-21T08:21:47.679Z,36.43
2018-07-21T08:24:18.024Z,36.22
2018-07-21T08:26:48.426Z,35.72
2018-07-21T08:29:18.897Z,35.89
2018-07-21T08:31:49.523Z,35.44
2018-07-21T08:34:19.969Z,35.65
2018-07-21T08:36:50.455Z,35.43
2018-07-21T08:39:21.042Z,36.76
2018-07-21T08:41:51.388Z,36.09
2018-07-21T08:44:22.093Z,37.95
2018-07-21T08:46:52.439Z,37.47
2018-07-21T08:49:23.007Z,36.24
2018-07-21T08:51:53.402Z,36.57
2018-07-21T08:54:23.883Z,35.65
2018-07-21T08:56:54.363Z,35.58
2018-07-21T08:59:24.627Z,37.58
2018-07-21T09:01:55.139Z,37.52
2018-07-21T09:04:25.545Z,38.02
2018-07-21T09:06:56.057Z,37.93
2018-07-21T09:09:26.673Z,37.08
2018-07-21T09:11:57.880Z,36.93
2018-07-21T09:14:28.320Z,37.97
2018-07-21T09:16:58.628Z,38.67
2018-07-21T09:19:29.108Z,38.02
2018-07-21T09:21:59.504Z,38.45
2018-07-21T09:24:30.388Z,37.56
2018-07-21T09:27:00.856Z,37.36
2018-07-21T09:29:31.360Z,37.38
2018-07-21T09:32:01.923Z,37.68
2018-07-21T09:34:32.155Z,38.04
2018-07-21T09:37:02.641Z,39.08
2018-07-21T09:39:32.913Z,37.97
2018-07-21T09:42:03.365Z,38.27
2018-07-21T09:44:33.671Z,38.35
2018-07-21T09:47:04.382Z,37.86
2018-07-21T09:49:35.582Z,39.07
2018-07-21T09:52:06.736Z,40.22
2018-07-21T09:54:37.186Z,39.96
2018-07-21T09:57:07.816Z,40.02
2018-07-21T09:59:38.119Z,38.90
2018-07-21T10:02:08.560Z,37.36
2018-07-21T10:04:38.916Z,37.59
2018-07-21T10:07:09.341Z,37.21
2018-07-21T10:09:39.679Z,36.95
2018-07-21T10:12:10.341Z,37.91
2018-07-21T10:14:41.111Z,37.17
2018-07-21T10:17:11.609Z,38.65
2018-07-21T10:19:42.003Z,38.65
2018-07-21T10:22:12.224Z,39.38
2018-07-21T10:24:47.815Z,38.41
2018-07-21T10:27:18.167Z,38.73
2018-07-21T10:29:48.470Z,38.36
2018-07-21T10:32:18.938Z,39.07
2018-07-21T10:34:49.250Z,39.47
2018-07-21T10:37:19.938Z,39.03
2018-07-21T10:39:50.139Z,39.42
2018-07-21T10:42:21.052Z,38.21
2018-07-21T10:44:51.327Z,39.66
2018-07-21T10:47:21.697Z,39.03
2018-07-21T10:49:51.932Z,38.88
2018-07-21T10:52:22.163Z,37.63
2018-07-21T10:54:52.593Z,38.74
2018-07-21T10:57:23.079Z,39.00
2018-07-21T10:59:53.420Z,38.73
2018-07-21T11:02:23.709Z,39.09
2018-07-21T11:04:53.938Z,39.24
2018-07-21T11:07:24.287Z,39.16
2018-07-21T11:09:54.526Z,37.80
2018-07-21T11:12:24.979Z,37.54
2018-07-21T11:14:55.406Z,37.64
2018-07-21T11:17:25.910Z,37.55
2018-07-21T11:19:56.825Z,37.35
2018-07-21T11:22:27.310Z,37.48
2018-07-21T11:24:57.660Z,37.80
2018-07-21T11:27:27.989Z,38.44
2018-07-21T11:29:58.569Z,38.24
2018-07-21T11:32:28.887Z,38.12
2018-07-21T11:34:59.248Z,38.76
2018-07-21T11:37:29.656Z,37.57
2018-07-21T11:40:00.215Z,36.21
2018-07-21T11:42:31.279Z,34.23
2018-07-21T11:45:01.592Z,33.93
2018-07-21T11:47:31.965Z,33.19
2018-07-21T11:50:02.422Z,33.06
2018-07-21T11:52:33.935Z,32.80
2018-07-21T11:55:04.376Z,32.50
2018-07-21T11:57:34.786Z,32.63
2018-07-21T12:00:05.552Z,32.56
2018-07-21T12:02:36.048Z,32.64
2018-07-21T12:05:07.229Z,32.68
2018-07-21T12:07:37.624Z,32.80
2018-07-21T12:10:08.162Z,32.96
2018-07-21T12:12:38.582Z,33.17
2018-07-21T12:15:09.238Z,33.07
2018-07-21T12:17:41.603Z,32.51
2018-07-21T12:20:11.893Z,32.47
2018-07-21T12:22:42.206Z,32.94
2018-07-21T12:25:12.445Z,32.87
2018-07-21T12:27:42.999Z,32.55
2018-07-21T12:30:13.330Z,32.62
2018-07-21T12:32:44.650Z,32.81
2018-07-21T12:35:14.810Z,32.87
2018-07-21T12:37:45.109Z,32.81
2018-07-21T12:40:15.773Z,32.79
2018-07-21T12:42:46.270Z,32.74
2018-07-21T12:45:16.633Z,32.91
2018-07-21T12:47:46.884Z,33.24
2018-07-21T12:50:18.199Z,33.39
2018-07-21T12:52:48.547Z,33.54
2018-07-21T12:55:18.789Z,33.62
2018-07-21T12:57:49.117Z,33.62
2018-07-21T13:00:19.435Z,33.76
2018-07-21T13:02:49.856Z,33.84
2018-07-21T13:05:20.491Z,33.61
2018-07-21T13:07:50.594Z,33.76
2018-07-21T13:10:20.816Z,33.63
2018-07-21T13:12:51.166Z,33.77
2018-07-21T13:15:21.547Z,33.45
2018-07-21T13:17:51.819Z,33.22
2018-07-21T13:20:22.392Z,33.56
2018-07-21T13:22:52.661Z,33.39
2018-07-21T13:25:23.243Z,33.08
2018-07-21T13:27:53.792Z,33.14
2018-07-21T13:30:24.111Z,33.39
2018-07-21T13:32:54.458Z,33.51
2018-07-21T13:35:24.800Z,33.66
2018-07-21T13:37:55.189Z,33.63
2018-07-21T13:40:25.415Z,33.73
2018-07-21T13:42:55.765Z,33.58
2018-07-21T13:45:26.276Z,33.54
2018-07-21T13:47:56.667Z,33.43
2018-07-21T13:50:27.214Z,33.35
2018-07-21T13:52:57.617Z,33.30
2018-07-21T13:55:28.184Z,33.17
2018-07-21T13:58:29.379Z,33.07
2018-07-21T14:00:59.687Z,32.95
2018-07-21T14:03:30.175Z,33.11
2018-07-21T14:06:00.485Z,33.10
2018-07-21T14:08:30.823Z,33.08
2018-07-21T14:11:01.434Z,33.24
2018-07-21T14:13:31.674Z,33.37
2018-07-21T14:16:02.126Z,33.46
2018-07-21T14:18:32.463Z,33.53
2018-07-21T14:21:02.726Z,33.47
2018-07-21T14:23:34.145Z,33.34
2018-07-21T14:26:04.411Z,33.43
2018-07-21T14:28:34.732Z,33.27
2018-07-21T14:31:05.366Z,33.36
2018-07-21T14:33:35.945Z,33.29
2018-07-21T14:36:06.448Z,33.28
2018-07-21T14:38:36.721Z,33.28
2018-07-21T14:41:07.312Z,33.23
2018-07-21T14:43:37.857Z,33.17
2018-07-21T14:46:08.162Z,32.93
2018-07-21T14:48:38.889Z,33.00
2018-07-21T14:51:09.243Z,32.95
2018-07-21T14:53:39.599Z,32.91
2018-07-21T14:56:10.080Z,32.84
2018-07-21T14:58:40.363Z,32.94
2018-07-21T15:01:10.755Z,32.94
2018-07-21T15:03:41.048Z,32.98
2018-07-21T15:06:11.366Z,33.07
2018-07-21T15:08:41.650Z,33.13
2018-07-21T15:11:12.221Z,33.10
2018-07-21T15:13:42.602Z,33.16
2018-07-21T15:16:13.002Z,33.13
2018-07-21T15:18:43.250Z,33.30
2018-07-21T15:21:13.477Z,33.19
2018-07-21T15:23:43.784Z,33.09
2018-07-21T15:26:14.206Z,33.03
2018-07-21T15:28:44.608Z,32.96
2018-07-21T15:31:15.199Z,33.03
2018-07-21T15:33:45.842Z,32.90
2018-07-21T15:36:16.430Z,32.96
2018-07-21T15:38:47.073Z,32.84
2018-07-21T15:41:17.433Z,32.86
2018-07-21T15:43:47.720Z,32.82
2018-07-21T15:46:19.064Z,32.85
2018-07-21T15:48:49.580Z,32.94
2018-07-21T15:51:20.048Z,32.95
2018-07-21T15:53:50.572Z,32.83
2018-07-21T15:56:21.212Z,32.76
2018-07-21T15:58:51.507Z,32.67
2018-07-21T16:01:22.131Z,32.60
2018-07-21T16:03:52.485Z,32.51
2018-07-21T16:06:22.950Z,32.53
2018-07-21T16:08:53.291Z,32.50
2018-07-21T16:11:25.090Z,32.45
2018-07-21T16:13:56.041Z,32.51
2018-07-21T16:16:26.413Z,32.54
2018-07-21T16:18:57.950Z,32.48
2018-07-21T16:21:29.300Z,32.38
2018-07-21T16:24:00.381Z,32.33
2018-07-21T16:26:30.815Z,32.30
2018-07-21T16:29:01.129Z,32.23
2018-07-21T16:31:31.571Z,32.21
2018-07-21T16:34:02.159Z,32.16
2018-07-21T16:36:32.586Z,32.14
2018-07-21T16:39:02.886Z,32.06
2018-07-21T16:41:33.368Z,31.98
2018-07-21T16:44:03.774Z,31.85
2018-07-21T16:46:34.124Z,31.76
2018-07-21T16:49:04.522Z,31.69
2018-07-21T16:51:35.151Z,31.61
2018-07-21T16:54:05.497Z,31.58
2018-07-21T16:56:35.789Z,31.52
2018-07-21T16:59:06.247Z,31.48
2018-07-21T17:01:37.039Z,31.42
2018-07-21T17:04:08.160Z,31.38
2018-07-21T17:06:38.543Z,31.35
2018-07-21T17:09:10.563Z,31.24
2018-07-21T17:11:41.002Z,31.18
2018-07-21T17:14:11.610Z,31.10
2018-07-21T17:16:41.995Z,30.97
2018-07-21T17:19:12.539Z,30.90
2018-07-21T17:21:43.021Z,30.76
2018-07-21T17:24:13.825Z,30.75
2018-07-21T17:26:44.120Z,30.73
2018-07-21T17:29:14.386Z,30.64
2018-07-21T17:31:44.699Z,30.56
2018-07-21T17:34:15.186Z,30.40
2018-07-21T17:36:45.585Z,30.31
2018-07-21T17:39:16.029Z,30.10
2018-07-21T17:41:46.318Z,30.01
2018-07-21T17:44:16.726Z,29.90
2018-07-21T17:46:47.062Z,29.73
2018-07-21T17:49:17.635Z,29.64
2018-07-21T17:51:48.050Z,29.58
2018-07-21T17:54:18.393Z,29.61
2018-07-21T17:56:48.666Z,29.54
2018-07-21T17:59:19.251Z,29.41
2018-07-21T18:01:49.530Z,29.35
2018-07-21T18:04:20.678Z,29.25
2018-07-21T18:06:50.967Z,29.19
2018-07-21T18:09:21.353Z,29.02
2018-07-21T18:11:51.778Z,28.89
2018-07-21T18:14:22.204Z,28.89
2018-07-21T18:16:52.433Z,28.80
2018-07-21T18:19:22.709Z,28.06
2018-07-21T18:21:53.210Z,28.62
2018-07-21T18:24:26.524Z,28.67
2018-07-21T18:26:56.881Z,28.60
2018-07-21T18:29:27.269Z,28.53
2018-07-21T18:31:57.703Z,28.65
2018-07-21T18:34:28.283Z,28.72
2018-07-21T18:36:58.807Z,28.77
2018-07-21T18:39:29.182Z,28.64
2018-07-21T18:41:59.558Z,28.56
2018-07-21T18:44:30.102Z,28.58
2018-07-21T18:47:01.182Z,28.47
2018-07-21T18:49:31.443Z,28.41
2018-07-21T18:52:01.799Z,28.43
2018-07-21T18:54:32.182Z,28.43
2018-07-21T18:57:02.780Z,28.39
2018-07-21T18:59:33.205Z,28.34
2018-07-21T19:02:03.612Z,28.15
2018-07-21T19:04:34.336Z,27.90
2018-07-21T19:07:07.028Z,27.71
2018-07-21T19:09:37.464Z,27.62
2018-07-21T19:12:12.797Z,27.44
2018-07-21T19:14:43.356Z,27.17
2018-07-21T19:17:13.590Z,27.12
2018-07-21T19:19:49.131Z,27.03
2018-07-21T19:22:19.584Z,26.83
2018-07-21T19:24:50.163Z,26.82
2018-07-21T19:27:25.565Z,26.74
2018-07-21T19:29:55.830Z,26.70
2018-07-21T19:32:31.156Z,26.53
2018-07-21T19:35:01.499Z,26.46
2018-07-21T19:37:37.078Z,26.38
2018-07-21T19:40:07.641Z,26.33
2018-07-21T19:42:37.882Z,26.35
2018-07-21T19:45:08.348Z,26.31
2018-07-21T19:47:38.761Z,26.23
2018-07-21T19:50:09.366Z,26.17
2018-07-21T19:52:40.427Z,26.11
2018-07-21T19:55:11.103Z,26.01
2018-07-21T19:57:41.447Z,26.02
2018-07-21T20:00:12.727Z,26.01
2018-07-21T20:02:42.940Z,25.88
2018-07-21T20:05:13.310Z,25.71
2018-07-21T20:07:43.611Z,25.62
2018-07-21T20:10:13.949Z,25.62
2018-07-21T20:12:44.317Z,25.51
2018-07-21T20:15:14.651Z,25.41
2018-07-21T20:17:45.030Z,25.38
2018-07-21T20:20:15.366Z,25.28
2018-07-21T20:22:45.667Z,25.24
2018-07-21T20:25:15.942Z,25.14
2018-07-21T20:27:46.285Z,25.07
2018-07-21T20:30:17.099Z,25.04
2018-07-21T20:32:47.630Z,25.05
2018-07-21T20:35:18.159Z,24.99
2018-07-21T20:37:48.632Z,24.95
2018-07-21T20:40:19.006Z,24.92
2018-07-21T20:42:49.645Z,24.90
2018-07-21T20:45:20.219Z,24.84
2018-07-21T20:47:50.593Z,24.80
2018-07-21T20:50:21.221Z,24.72
2018-07-21T20:52:51.528Z,24.63
2018-07-21T20:55:23.164Z,24.62
2018-07-21T20:57:53.395Z,24.66
2018-07-21T21:00:24.185Z,24.74
2018-07-21T21:02:54.489Z,24.72
2018-07-21T21:05:24.943Z,24.62
2018-07-21T21:07:56.271Z,24.53
2018-07-21T21:10:26.631Z,24.49
2018-07-21T21:12:57.681Z,24.40
2018-07-21T21:15:27.957Z,24.43
2018-07-21T21:17:58.373Z,24.39
2018-07-21T21:20:28.715Z,24.37
2018-07-21T21:22:59.198Z,24.24
2018-07-21T21:25:29.335Z,24.15
2018-07-21T21:27:59.732Z,24.17
2018-07-21T21:30:30.096Z,24.14
2018-07-21T21:33:00.666Z,24.05
2018-07-21T21:35:31.056Z,24.04
2018-07-21T21:38:01.362Z,23.92
2018-07-21T21:40:31.870Z,23.93
2018-07-21T21:43:02.127Z,23.79
2018-07-21T21:45:32.612Z,23.79
2018-07-21T21:48:03.152Z,23.74
2018-07-21T21:50:33.637Z,23.61
2018-07-21T21:53:04.104Z,23.57
2018-07-21T21:55:34.657Z,23.46
2018-07-21T21:58:05.232Z,23.49
2018-07-21T22:00:57.317Z,23.45
2018-07-21T22:03:28.420Z,23.42
2018-07-21T22:05:59.323Z,23.44
2018-07-21T22:08:30.290Z,23.39
2018-07-21T22:11:00.609Z,23.28
2018-07-21T22:13:31.091Z,23.41
2018-07-21T22:16:01.910Z,23.34
2018-07-21T22:18:32.781Z,23.29
2018-07-21T22:21:03.082Z,23.24
2018-07-21T22:23:34.151Z,23.18
2018-07-21T22:26:04.461Z,23.13
2018-07-21T22:28:34.802Z,23.24
2018-07-21T22:31:05.098Z,23.31
2018-07-21T22:33:35.539Z,23.22
2018-07-21T22:36:06.044Z,23.17
2018-07-21T22:38:36.427Z,23.07
2018-07-21T22:41:07.001Z,23.11
2018-07-21T22:43:37.312Z,23.05
2018-07-21T22:46:07.687Z,22.99
2018-07-21T22:48:38.246Z,22.92
2018-07-21T22:51:08.516Z,22.87
2018-07-21T22:53:39.164Z,22.94
2018-07-21T22:56:10.127Z,22.85
2018-07-21T22:58:40.470Z,22.81
2018-07-21T23:01:10.738Z,22.70
2018-07-21T23:03:41.052Z,22.63
2018-07-21T23:06:11.379Z,22.62
2018-07-21T23:08:42.248Z,22.67
2018-07-21T23:11:12.621Z,22.57
2018-07-21T23:13:43.083Z,22.62
2018-07-21T23:16:13.511Z,22.52
2018-07-21T23:18:43.754Z,22.47
2018-07-21T23:21:14.026Z,22.46
2018-07-21T23:23:44.602Z,22.52
2018-07-21T23:26:14.906Z,22.54
2018-07-21T23:28:45.235Z,22.48
2018-07-21T23:31:15.735Z,22.43
2018-07-21T23:33:46.303Z,22.39
2018-07-21T23:36:17.552Z,22.20
2018-07-21T23:38:47.929Z,22.30
2018-07-21T23:41:18.166Z,22.22
2018-07-21T23:43:48.674Z,22.20
2018-07-21T23:46:19.175Z,22.15
2018-07-21T23:48:50.547Z,22.11
2018-07-21T23:51:20.983Z,22.03
2018-07-21T23:53:51.401Z,22.05
2018-07-21T23:56:22.008Z,22.05
2018-07-21T23:58:52.259Z,22.03
